sensor_id;sensor_type;location;lat;lon;timestamp;P1;P2;P0
55857;PMS7003;41779;52.360;31.026;2023-05-07T06:36:33;1.5;1;1
55857;PMS7003;41779;52.360;31.026;2023-05-07T06:42:07;7.6;6.2;5.2
55857;PMS7003;41779;52.360;31.026;2023-05-07T06:46:56;6;4.2;3.2
55857;PMS7003;41779;52.360;31.026;2023-05-07T06:51:35;6.6;6.2;4.4
55857;PMS7003;41779;52.360;31.026;2023-05-07T06:56:35;4.6;3.4;2.8
55857;PMS7003;41779;52.360;31.026;2023-05-07T07:01:49;5;3.6;3
55857;PMS7003;41779;52.360;31.026;2023-05-07T07:06:41;4;3.4;3
55857;PMS7003;41779;52.360;31.026;2023-05-07T07:11:59;6;3.8;2.8
55857;PMS7003;41779;52.360;31.026;2023-05-07T07:16:49;7;6;4.2
55857;PMS7003;41779;52.360;31.026;2023-05-07T07:21:23;4.4;3.6;2.8
55857;PMS7003;41779;52.360;31.026;2023-05-07T07:27:09;4.8;4.5;3.8
55857;PMS7003;41779;52.360;31.026;2023-05-07T07:32:09;3.4;3;2.6
55857;PMS7003;41779;52.360;31.026;2023-05-07T07:36:29;4.4;3.2;2.4
55857;PMS7003;41779;52.360;31.026;2023-05-07T07:41:23;4.2;3;2.8
55857;PMS7003;41779;52.360;31.026;2023-05-07T07:46:23;3.8;2.6;2.2
55857;PMS7003;41779;52.360;31.026;2023-05-07T07:52:09;3.4;2;1.8
55857;PMS7003;41779;52.360;31.026;2023-05-07T07:56:43;2.6;1.8;1.6
55857;PMS7003;41779;52.360;31.026;2023-05-07T08:01:33;3.4;3.2;2.4
55857;PMS7003;41779;52.360;31.026;2023-05-07T08:06:55;9.4;8.6;6.6
55857;PMS7003;41779;52.360;31.026;2023-05-07T08:11:35;5;3.6;3.2
55857;PMS7003;41779;52.360;31.026;2023-05-07T08:16:42;4.2;3.8;3.2
55857;PMS7003;41779;52.360;31.026;2023-05-07T08:21:41;5.6;5.2;4.4
55857;PMS7003;41779;52.360;31.026;2023-05-07T08:27:05;3.3;3;2.8
55857;PMS7003;41779;52.360;31.026;2023-05-07T08:31:23;3.4;2.4;2
55857;PMS7003;41779;52.360;31.026;2023-05-07T08:37:09;3.4;2.6;2.4
55857;PMS7003;41779;52.360;31.026;2023-05-07T08:42:09;2.8;2.4;2.4
55857;PMS7003;41779;52.360;31.026;2023-05-07T08:46:23;2.6;2.2;2
55857;PMS7003;41779;52.360;31.026;2023-05-07T08:51:23;2.2;2;2
55857;PMS7003;41779;52.360;31.026;2023-05-07T08:56:57;2.2;1.4;1.4
55857;PMS7003;41779;52.360;31.026;2023-05-07T09:01:51;2.4;1.8;1.6
55857;PMS7003;41779;52.360;31.026;2023-05-07T09:07:01;1.8;1.8;1.6
55857;PMS7003;41779;52.360;31.026;2023-05-07T09:11:54;3.2;1.8;1.8
55857;PMS7003;41779;52.360;31.026;2023-05-07T09:17:07;2.4;1.6;1.4
55857;PMS7003;41779;52.360;31.026;2023-05-07T09:21:57;2.6;2.2;2
55857;PMS7003;41779;52.360;31.026;2023-05-07T09:26:37;3.3;2.8;2.3
55857;PMS7003;41779;52.360;31.026;2023-05-07T09:31:36;2.6;1.8;1.4
55857;PMS7003;41779;52.360;31.026;2023-05-07T09:37:08;2.6;2.2;1.8
55857;PMS7003;41779;52.360;31.026;2023-05-07T09:41:21;4;3.4;2.8
55857;PMS7003;41779;52.360;31.026;2023-05-07T09:46:57;5.6;4.6;3.6
55857;PMS7003;41779;52.360;31.026;2023-05-07T09:51:58;10.2;7.4;5.8
55857;PMS7003;41779;52.360;31.026;2023-05-07T09:56:23;4;3.2;2.8
55857;PMS7003;41779;52.360;31.026;2023-05-07T10:01:52;3.6;3;2.4
55857;PMS7003;41779;52.360;31.026;2023-05-07T10:06:24;3.2;2.6;2.2
55857;PMS7003;41779;52.360;31.026;2023-05-07T10:11:23;3.2;2;2
55857;PMS7003;41779;52.360;31.026;2023-05-07T10:17:00;5;3.8;2.8
55857;PMS7003;41779;52.360;31.026;2023-05-07T10:22:03;5.4;3.8;3.4
55857;PMS7003;41779;52.360;31.026;2023-05-07T10:26:35;4.3;3.3;2.8
55857;PMS7003;41779;52.360;31.026;2023-05-07T10:31:54;4;3.4;3
55857;PMS7003;41779;52.360;31.026;2023-05-07T10:37:02;3.4;3;2.2
55857;PMS7003;41779;52.360;31.026;2023-05-07T10:42:10;2.4;2;1.8
55857;PMS7003;41779;52.360;31.026;2023-05-07T10:46:22;2.2;1.8;1.4
55857;PMS7003;41779;52.360;31.026;2023-05-07T10:52:13;2.2;1.6;1.4
55857;PMS7003;41779;52.360;31.026;2023-05-07T10:57:41;2.4;2;1.8
55857;PMS7003;41779;52.360;31.026;2023-05-07T11:01:52;2.2;2.2;1.6
55857;PMS7003;41779;52.360;31.026;2023-05-07T11:06:30;3.2;2.2;2.2
55857;PMS7003;41779;52.360;31.026;2023-05-07T11:12:10;1.6;1.6;1.6
55857;PMS7003;41779;52.360;31.026;2023-05-07T11:17:02;5.2;4.6;3.6
55857;PMS7003;41779;52.360;31.026;2023-05-07T11:21:31;2.4;2;2
55857;PMS7003;41779;52.360;31.026;2023-05-07T11:26:43;3.8;3;2.5
55857;PMS7003;41779;52.360;31.026;2023-05-07T11:32:10;2.4;2.2;2.2
55857;PMS7003;41779;52.360;31.026;2023-05-07T11:36:37;2.6;2;2
55857;PMS7003;41779;52.360;31.026;2023-05-07T11:41:58;2.2;1.4;1.4
55857;PMS7003;41779;52.360;31.026;2023-05-07T11:47:10;2.6;2.4;2.2
55857;PMS7003;41779;52.360;31.026;2023-05-07T11:51:24;2.6;2.6;2.2
55857;PMS7003;41779;52.360;31.026;2023-05-07T11:56:24;1.8;1.4;1.4
55857;PMS7003;41779;52.360;31.026;2023-05-07T12:01:36;2.8;2;1.8
55857;PMS7003;41779;52.360;31.026;2023-05-07T12:06:24;3.2;2.4;2
55857;PMS7003;41779;52.360;31.026;2023-05-07T12:12:03;4.4;3.8;2.8
55857;PMS7003;41779;52.360;31.026;2023-05-07T12:16:50;4.8;3.2;2.8
55857;PMS7003;41779;52.360;31.026;2023-05-07T12:21:34;3.4;2.2;1.8
55857;PMS7003;41779;52.360;31.026;2023-05-07T12:26:56;3.2;2.4;2
55857;PMS7003;41779;52.360;31.026;2023-05-07T12:32:12;2.5;2;1.8
55857;PMS7003;41779;52.360;31.026;2023-05-07T12:36:42;2.6;2;1.8
55857;PMS7003;41779;52.360;31.026;2023-05-07T12:41:36;1.6;1.4;1.2
55857;PMS7003;41779;52.360;31.026;2023-05-07T12:46:38;2.4;1.8;1.4
55857;PMS7003;41779;52.360;31.026;2023-05-07T12:52:10;3;2;1.8
55857;PMS7003;41779;52.360;31.026;2023-05-07T12:56:44;2.4;1.4;1
55857;PMS7003;41779;52.360;31.026;2023-05-07T13:01:28;3.2;2.2;1.8
55857;PMS7003;41779;52.360;31.026;2023-05-07T13:07:10;3.2;3;2.8
55857;PMS7003;41779;52.360;31.026;2023-05-07T13:11:38;3.8;3;2.4
55857;PMS7003;41779;52.360;31.026;2023-05-07T13:16:36;3.4;2.6;2.2
55857;PMS7003;41779;52.360;31.026;2023-05-07T13:21:42;4.2;2.8;2.6
55857;PMS7003;41779;52.360;31.026;2023-05-07T13:27:10;2.6;2.4;2.2
55857;PMS7003;41779;52.360;31.026;2023-05-07T13:31:36;2.8;2;1.8
55857;PMS7003;41779;52.360;31.026;2023-05-07T13:37:10;3.4;3.2;2.4
55857;PMS7003;41779;52.360;31.026;2023-05-07T13:41:58;3;2;1.8
55857;PMS7003;41779;52.360;31.026;2023-05-07T13:46:24;3;2;1.8
55857;PMS7003;41779;52.360;31.026;2023-05-07T13:51:46;2.6;2.4;1.8
55857;PMS7003;41779;52.360;31.026;2023-05-07T13:56:58;3.2;3;2.8
55857;PMS7003;41779;52.360;31.026;2023-05-07T14:01:56;3.6;2.6;2.2
55857;PMS7003;41779;52.360;31.026;2023-05-07T14:07:02;2.6;2;1.8
55857;PMS7003;41779;52.360;31.026;2023-05-07T14:11:24;3.2;2.2;2.2
55857;PMS7003;41779;52.360;31.026;2023-05-07T14:16:56;3.8;2.8;2.6
55857;PMS7003;41779;52.360;31.026;2023-05-07T14:22:13;2;2;1.8
55857;PMS7003;41779;52.360;31.026;2023-05-07T14:26:24;2.8;2.6;2
55857;PMS7003;41779;52.360;31.026;2023-05-07T14:31:36;2.8;1.5;1.5
55857;PMS7003;41779;52.360;31.026;2023-05-07T14:36:54;3.4;2.8;2.4
55857;PMS7003;41779;52.360;31.026;2023-05-07T14:41:34;2.6;2.2;2.2
55857;PMS7003;41779;52.360;31.026;2023-05-07T14:46:58;3.2;2;1.6
55857;PMS7003;41779;52.360;31.026;2023-05-07T14:51:58;4;2.6;2.2
55857;PMS7003;41779;52.360;31.026;2023-05-07T14:56:24;4.2;2.8;2.2
55857;PMS7003;41779;52.360;31.026;2023-05-07T15:01:25;3.4;2.6;2.2
55857;PMS7003;41779;52.360;31.026;2023-05-07T15:06:48;4;2.8;2.6
55857;PMS7003;41779;52.360;31.026;2023-05-07T15:11:34;3;3;2.2
55857;PMS7003;41779;52.360;31.026;2023-05-07T15:17:00;5;3.8;3.2
55857;PMS7003;41779;52.360;31.026;2023-05-07T15:21:46;4.8;4;3.2
55857;PMS7003;41779;52.360;31.026;2023-05-07T15:26:40;4.2;3.2;2.4
55857;PMS7003;41779;52.360;31.026;2023-05-07T15:31:54;5;3.5;2.8
55857;PMS7003;41779;52.360;31.026;2023-05-07T15:37:08;6.6;3.2;2.4
55857;PMS7003;41779;52.360;31.026;2023-05-07T15:41:42;6.8;4.2;3.4
55857;PMS7003;41779;52.360;31.026;2023-05-07T15:46:24;4.2;3;2.6
55857;PMS7003;41779;52.360;31.026;2023-05-07T15:51:24;3.6;2.8;2.6
55857;PMS7003;41779;52.360;31.026;2023-05-07T15:57:10;3.6;2.8;2.4
55857;PMS7003;41779;52.360;31.026;2023-05-07T16:01:46;3;2.8;2.2
55857;PMS7003;41779;52.360;31.026;2023-05-07T16:06:58;3.4;2.6;2.4
55857;PMS7003;41779;52.360;31.026;2023-05-07T16:12:10;4.2;2.6;2
55857;PMS7003;41779;52.360;31.026;2023-05-07T16:16:24;4;3;2.8
55857;PMS7003;41779;52.360;31.026;2023-05-07T16:21:34;4;3.4;2.8
55857;PMS7003;41779;52.360;31.026;2023-05-07T16:26:42;5;3;2.2
55857;PMS7003;41779;52.360;31.026;2023-05-07T16:32:10;5.4;4.6;3.4
55857;PMS7003;41779;52.360;31.026;2023-05-07T16:36:48;6.8;4.5;3.5
55857;PMS7003;41779;52.360;31.026;2023-05-07T16:42:10;4.4;3;2.8
55857;PMS7003;41779;52.360;31.026;2023-05-07T16:47:10;5.4;4;3
55857;PMS7003;41779;52.360;31.026;2023-05-07T16:51:24;4.4;3.6;3.2
55857;PMS7003;41779;52.360;31.026;2023-05-07T16:56:37;6.8;4.2;3.2
55857;PMS7003;41779;52.360;31.026;2023-05-07T17:02:00;7;5;4.4
55857;PMS7003;41779;52.360;31.026;2023-05-07T17:06:56;4.8;4.8;3.8
55857;PMS7003;41779;52.360;31.026;2023-05-07T17:11:36;8.2;5.6;4.2
55857;PMS7003;41779;52.360;31.026;2023-05-07T17:16:38;8;7.4;5.4
55857;PMS7003;41779;52.360;31.026;2023-05-07T17:22:12;9.4;6.8;5.4
55857;PMS7003;41779;52.360;31.026;2023-05-07T17:26:54;7.8;6.8;4.8
55857;PMS7003;41779;52.360;31.026;2023-05-07T17:31:34;7.6;6.8;5
55857;PMS7003;41779;52.360;31.026;2023-05-07T17:36:42;11;9;7.8
55857;PMS7003;41779;52.360;31.026;2023-05-07T17:42:10;9;7.6;5.4
55857;PMS7003;41779;52.360;31.026;2023-05-07T17:46:36;4.8;3.8;3.2
55857;PMS7003;41779;52.360;31.026;2023-05-07T17:52:10;6.2;3.8;2.8
55857;PMS7003;41779;52.360;31.026;2023-05-07T17:56:58;6.6;4.4;3.6
55857;PMS7003;41779;52.360;31.026;2023-05-07T18:01:34;7.6;6.2;4.4
55857;PMS7003;41779;52.360;31.026;2023-05-07T18:06:54;7.6;6.8;5.2
55857;PMS7003;41779;52.360;31.026;2023-05-07T18:11:36;11;7.4;5.4
55857;PMS7003;41779;52.360;31.026;2023-05-07T18:16:42;7.6;6.8;5
55857;PMS7003;41779;52.360;31.026;2023-05-07T18:21:50;20.4;14.2;10.2
55857;PMS7003;41779;52.360;31.026;2023-05-07T18:27:10;13.8;11;8.4
55857;PMS7003;41779;52.360;31.026;2023-05-07T18:31:50;17.6;14;11.4
55857;PMS7003;41779;52.360;31.026;2023-05-07T18:36:44;42;35.3;23.3
55857;PMS7003;41779;52.360;31.026;2023-05-07T18:41:52;19.4;15.8;11.6
55857;PMS7003;41779;52.360;31.026;2023-05-07T18:46:58;11.2;9.8;7.2
55857;PMS7003;41779;52.360;31.026;2023-05-07T18:51:46;14.6;9.6;8.2
55857;PMS7003;41779;52.360;31.026;2023-05-07T18:56:56;16.2;11.6;8.8
55857;PMS7003;41779;52.360;31.026;2023-05-07T19:02:12;19.6;14.6;11
55857;PMS7003;41779;52.360;31.026;2023-05-07T19:07:12;14.4;11;8.8
55857;PMS7003;41779;52.360;31.026;2023-05-07T19:11:24;13.8;11.8;8.8
55857;PMS7003;41779;52.360;31.026;2023-05-07T19:17:12;13;11;8.4
55857;PMS7003;41779;52.360;31.026;2023-05-07T19:21:50;16.6;11.8;9
55857;PMS7003;41779;52.360;31.026;2023-05-07T19:26:32;15.2;12.4;9.2
55857;PMS7003;41779;52.360;31.026;2023-05-07T19:31:42;19.6;16.2;12.4
55857;PMS7003;41779;52.360;31.026;2023-05-07T19:37:10;17.8;12.5;9.3
55857;PMS7003;41779;52.360;31.026;2023-05-07T19:41:38;14;11;8.2
55857;PMS7003;41779;52.360;31.026;2023-05-07T19:47:10;13.6;11.6;8.8
55857;PMS7003;41779;52.360;31.026;2023-05-07T19:52:10;13.8;10.8;8.8
55857;PMS7003;41779;52.360;31.026;2023-05-07T19:56:34;14.6;10.6;8.8
55857;PMS7003;41779;52.360;31.026;2023-05-07T20:01:46;15.4;11.4;8.8
55857;PMS7003;41779;52.360;31.026;2023-05-07T20:06:58;19.6;15.8;12.2
55857;PMS7003;41779;52.360;31.026;2023-05-07T20:11:54;20;14.4;11.6
55857;PMS7003;41779;52.360;31.026;2023-05-07T20:17:02;18.4;13.6;11
55857;PMS7003;41779;52.360;31.026;2023-05-07T20:21:50;17;13.8;10.6
55857;PMS7003;41779;52.360;31.026;2023-05-07T20:27:08;19.2;14.8;11.6
55857;PMS7003;41779;52.360;31.026;2023-05-07T20:31:32;22.4;17.4;13.2
55857;PMS7003;41779;52.360;31.026;2023-05-07T20:37:10;19.5;15;12.5
55857;PMS7003;41779;52.360;31.026;2023-05-07T20:41:24;14.8;13.2;10.2
55857;PMS7003;41779;52.360;31.026;2023-05-07T20:47:10;18.2;15;11
55857;PMS7003;41779;52.360;31.026;2023-05-07T20:51:24;21.6;15.6;10.4
55857;PMS7003;41779;52.360;31.026;2023-05-07T20:56:58;20.6;14.8;11
55857;PMS7003;41779;52.360;31.026;2023-05-07T21:01:58;17.8;13.8;10.6
55857;PMS7003;41779;52.360;31.026;2023-05-07T21:06:46;18.4;14.2;10.8
55857;PMS7003;41779;52.360;31.026;2023-05-07T21:11:54;16;12.4;10.2
55857;PMS7003;41779;52.360;31.026;2023-05-07T21:16:50;18;12.4;9.2
55857;PMS7003;41779;52.360;31.026;2023-05-07T21:21:24;13.2;10.2;7.8
55857;PMS7003;41779;52.360;31.026;2023-05-07T21:27:10;11.4;10;6.6
55857;PMS7003;41779;52.360;31.026;2023-05-07T21:32:02;8.6;7.2;6.2
55857;PMS7003;41779;52.360;31.026;2023-05-07T21:36:36;9.8;7;5.4
55857;PMS7003;41779;52.360;31.026;2023-05-07T21:41:54;10.8;7.5;6
55857;PMS7003;41779;52.360;31.026;2023-05-07T21:47:02;9.2;6.8;5.4
55857;PMS7003;41779;52.360;31.026;2023-05-07T21:51:56;8.4;7.4;5.6
55857;PMS7003;41779;52.360;31.026;2023-05-07T21:56:24;9.4;6.8;5.4
55857;PMS7003;41779;52.360;31.026;2023-05-07T22:01:58;7.4;6.4;5.2
55857;PMS7003;41779;52.360;31.026;2023-05-07T22:07:08;7.4;6.4;5.2
55857;PMS7003;41779;52.360;31.026;2023-05-07T22:12:10;6.2;5.8;4.6
55857;PMS7003;41779;52.360;31.026;2023-05-07T22:16:40;6.8;5.2;4.8
55857;PMS7003;41779;52.360;31.026;2023-05-07T22:22:08;6.2;5.4;5
55857;PMS7003;41779;52.360;31.026;2023-05-07T22:27:02;9.8;6;4.4
55857;PMS7003;41779;52.360;31.026;2023-05-07T22:31:36;7.2;6.4;5.4
55857;PMS7003;41779;52.360;31.026;2023-05-07T22:36:30;9.4;6.8;5.6
55857;PMS7003;41779;52.360;31.026;2023-05-07T22:42:08;7.3;7;6.3
55857;PMS7003;41779;52.360;31.026;2023-05-07T22:46:24;10.4;7;5.6
55857;PMS7003;41779;52.360;31.026;2023-05-07T22:52:10;7.4;6.4;5.8
55857;PMS7003;41779;52.360;31.026;2023-05-07T22:57:10;9;6;5.2
55857;PMS7003;41779;52.360;31.026;2023-05-07T23:01:36;6.4;5;4
55857;PMS7003;41779;52.360;31.026;2023-05-07T23:06:46;7.8;4.6;4.2
55857;PMS7003;41779;52.360;31.026;2023-05-07T23:11:50;6.8;4.4;3.2
55857;PMS7003;41779;52.360;31.026;2023-05-07T23:16:24;7;5;4.4
55857;PMS7003;41779;52.360;31.026;2023-05-07T23:22:02;7.2;4.2;3.6
55857;PMS7003;41779;52.360;31.026;2023-05-07T23:26:50;5.6;4;3.2
55857;PMS7003;41779;52.360;31.026;2023-05-07T23:31:42;6.6;4;3.2
55857;PMS7003;41779;52.360;31.026;2023-05-07T23:37:12;4;3.4;3.2
55857;PMS7003;41779;52.360;31.026;2023-05-07T23:41:38;5;4;2.5
55857;PMS7003;41779;52.360;31.026;2023-05-07T23:47:00;7.4;5.4;4.8
55857;PMS7003;41779;52.360;31.026;2023-05-07T23:52:12;4.6;4;3.4
55857;PMS7003;41779;52.360;31.026;2023-05-07T23:56:24;4.2;3;2.8
